Pagrindinis puslapis
METAR-TAF:

METAR-TAF

Oro uostai :

Krotonė, Italija

platuma: 39-00N, ilguma: 017-04E, Aukštis: 155 m

Dabartinis oras

Ataskaita buvo paskelbta 3 valandos ir 48 minutes, ne 22:50 UTC
Vėjas 5 kt iš Pietų
Temperatūra 13°C
Drėgmė 94%
Slėgis 1020 hPa
Matomumas 10 km arba daugiau
nėra debesų žemiau 1500 m ir nėra kamuolinių lietaus debesų

METAR: LIBC 212250Z 17005KT CAVOK 13/12 Q1020

Laikas: 04:38 (02:38 UTC)

Prognozė

Ataskaita buvo paskelbta 9 valandos ir 38 minutes, ne 17:00 UTC
Prognozė galioja nuo 21 metu 18 UTC su 22 metu 18 UTC
Vėjas 12 kt iš Pietų
Matomumas 10 km arba daugiau
Išsisklaidę debesys ne aukštis 3000 ft
Laikinai
nuo 22 metu 03 UTC su 22 metu 18 UTC
Matomumas: 4000 m
lietus

TAF: LIBC 211700Z 2118/2218 19012KT 9999 SCT030 TEMPO 2203/2218 4000 SHRA

Orai ataskaitas ir orų prognozės (METAR, TAF).

turimą stotys yra geltonos ir raudonos taškus žemėlapyje.

Perkelti pele per norėdami pamatyti stoties vardą.

Tada spustelėkite, norėdami matyti oro stebėjimo ir prognozės.

Norėdami pakeisti žemėlapį: spustelėkite ant žalios mygtukų su juodo kryžiaus žemyn,; žalią mygtuką su brūkšneliu, jei norite nutolinti; arba žalių rodyklių gretimoms žemėlapius.


METAR-TAF: